Time;durP1;ratioP1;P1;durP2;ratioP2;P2;SDS_P1;SDS_P2;PMS_P1;PMS_P2;Temp;Humidity;BMP_temperature;BMP_pressure;BME280_temperature;BME280_humidity;BME280_pressure;Samples;Min_cycle;Max_cycle;Signal;HPM_P1;HPM_P2
2021/03/30 00:01:17;;;;;;;32.57;17.03;;;10.60;99.90;;;;;;5065819;28;20260;-75
2021/03/30 00:03:44;;;;;;;37.30;17.73;;;10.50;99.90;;;;;;5070035;28;20596;-75
2021/03/30 00:06:10;;;;;;;36.60;20.30;;;10.50;99.90;;;;;;5068262;28;20266;-75
2021/03/30 00:08:36;;;;;;;38.90;20.07;;;10.50;99.90;;;;;;5070392;28;20184;-75
2021/03/30 00:11:03;;;;;;;36.13;19.63;;;10.60;99.90;;;;;;5070797;28;20203;-75
2021/03/30 00:13:30;;;;;;;35.07;17.53;;;10.70;99.90;;;;;;5070125;28;20262;-75
2021/03/30 00:15:55;;;;;;;35.03;17.80;;;10.60;99.90;;;;;;5072701;28;20577;-76
2021/03/30 00:18:21;;;;;;;37.80;18.37;;;10.50;99.90;;;;;;5069261;28;20241;-75
2021/03/30 00:20:47;;;;;;;35.93;19.17;;;10.40;99.90;;;;;;5068935;28;20189;-75
2021/03/30 00:23:13;;;;;;;35.13;18.67;;;10.40;99.90;;;;;;5068890;28;20223;-75
2021/03/30 00:25:38;;;;;;;34.83;17.70;;;10.30;99.90;;;;;;5071953;28;20205;-75
2021/03/30 00:28:04;;;;;;;32.83;18.30;;;10.30;99.90;;;;;;5070448;28;20208;-75
2021/03/30 00:30:30;;;;;;;33.17;17.73;;;10.20;99.90;;;;;;5068587;28;20185;-75
2021/03/30 00:32:56;;;;;;;30.93;16.73;;;10.10;99.90;;;;;;5070762;28;20246;-75
2021/03/30 00:35:22;;;;;;;33.77;18.10;;;10.10;99.90;;;;;;5068021;28;20257;-76
2021/03/30 00:37:49;;;;;;;34.20;18.40;;;10.10;99.90;;;;;;5069541;28;20849;-75
2021/03/30 00:40:15;;;;;;;37.80;20.77;;;10.00;99.90;;;;;;5069749;28;20203;-75
2021/03/30 00:42:41;;;;;;;44.53;21.37;;;10.00;99.90;;;;;;5069495;28;20650;-75
2021/03/30 00:45:08;;;;;;;44.17;22.03;;;9.90;99.90;;;;;;5071898;28;20313;-75
2021/03/30 00:47:35;;;;;;;36.10;18.80;;;9.90;99.90;;;;;;5067923;28;20725;-75
2021/03/30 00:50:02;;;;;;;35.33;18.30;;;9.90;99.90;;;;;;5067315;28;20179;-75
2021/03/30 00:52:28;;;;;;;36.43;18.37;;;9.90;99.90;;;;;;5069018;28;20286;-75
2021/03/30 00:55:17;;;;;;;40.23;19.93;;;9.80;99.90;;;;;;5068995;28;20261;-75
2021/03/30 00:57:46;;;;;;;36.00;18.50;;;9.80;99.90;;;;;;5069314;28;20551;-75
2021/03/30 01:00:14;;;;;;;38.80;19.37;;;9.80;99.90;;;;;;5067819;28;20180;-75
2021/03/30 01:02:40;;;;;;;37.20;19.03;;;9.80;99.90;;;;;;5072627;28;20187;-75
2021/03/30 01:05:07;;;;;;;32.30;18.77;;;9.80;99.90;;;;;;5065516;28;20255;-75
2021/03/30 01:07:35;;;;;;;42.23;20.33;;;9.80;99.90;;;;;;5082979;28;20269;-75
2021/03/30 01:10:33;;;;;;;40.53;20.63;;;9.70;99.90;;;;;;5069482;28;20252;-75
2021/03/30 01:13:23;;;;;;;41.60;20.83;;;9.60;99.90;;;;;;5070594;28;20222;-75
2021/03/30 01:16:05;;;;;;;41.97;20.40;;;9.60;99.90;;;;;;5068557;28;20215;-75
2021/03/30 01:18:54;;;;;;;39.00;19.87;;;9.50;99.90;;;;;;5071008;28;20536;-75
2021/03/30 01:21:20;;;;;;;45.37;20.73;;;9.50;99.90;;;;;;5071373;28;20577;-76
2021/03/30 01:23:56;;;;;;;41.87;20.63;;;9.50;99.90;;;;;;5067059;28;20226;-76
2021/03/30 01:26:24;;;;;;;44.40;20.53;;;9.50;99.90;;;;;;5071313;28;20651;-75
2021/03/30 01:29:24;;;;;;;40.87;21.17;;;9.50;99.90;;;;;;5066370;28;20222;-75
2021/03/30 01:31:56;;;;;;;45.23;21.80;;;9.50;99.90;;;;;;5068990;28;20214;-75
2021/03/30 01:34:24;;;;;;;41.80;22.07;;;9.50;99.90;;;;;;5062638;28;20226;-77
2021/03/30 01:36:53;;;;;;;43.53;21.87;;;9.50;99.90;;;;;;5070300;28;20180;-75
2021/03/30 01:39:19;;;;;;;36.07;19.47;;;9.50;99.90;;;;;;5068440;28;20274;-75
2021/03/30 01:41:48;;;;;;;37.37;19.53;;;9.50;99.90;;;;;;5070595;28;20212;-75
2021/03/30 01:44:16;;;;;;;38.27;19.63;;;9.40;99.90;;;;;;5059863;28;20645;-75
2021/03/30 01:46:42;;;;;;;39.40;18.93;;;9.40;99.90;;;;;;5072831;28;20186;-75
2021/03/30 01:49:10;;;;;;;41.63;18.97;;;9.30;99.90;;;;;;5075397;28;20177;-75
2021/03/30 01:51:37;;;;;;;39.87;19.27;;;9.10;99.90;;;;;;5071534;28;20217;-75
2021/03/30 01:54:05;;;;;;;37.63;18.90;;;9.00;99.90;;;;;;5075214;28;20233;-75
2021/03/30 01:56:31;;;;;;;35.83;18.77;;;9.00;99.90;;;;;;5070166;28;20268;-75
2021/03/30 01:58:59;;;;;;;41.93;20.17;;;8.90;99.90;;;;;;5074408;28;20303;-75
2021/03/30 02:01:26;;;;;;;41.93;20.40;;;8.90;99.90;;;;;;5073573;28;20265;-75
2021/03/30 02:03:52;;;;;;;49.27;21.97;;;8.80;99.90;;;;;;5054551;28;20618;-75
2021/03/30 02:06:18;;;;;;;46.33;22.00;;;8.80;99.90;;;;;;5069713;28;20211;-75
2021/03/30 02:08:45;;;;;;;43.03;22.23;;;8.80;99.90;;;;;;5071912;28;20191;-75
2021/03/30 02:11:20;;;;;;;45.77;21.30;;;8.90;99.90;;;;;;5065284;28;20191;-75
2021/03/30 02:13:54;;;;;;;39.20;20.10;;;8.90;99.90;;;;;;5071250;28;20218;-76
2021/03/30 02:16:24;;;;;;;40.73;20.30;;;8.90;99.90;;;;;;5071895;28;20182;-75
2021/03/30 02:19:11;;;;;;;40.90;20.43;;;8.90;99.90;;;;;;5071588;28;20261;-75
2021/03/30 02:22:08;;;;;;;40.97;20.03;;;8.90;99.90;;;;;;5073809;28;20208;-75
2021/03/30 02:24:35;;;;;;;36.80;19.13;;;8.90;99.90;;;;;;5069618;28;20203;-75
2021/03/30 02:27:06;;;;;;;35.33;18.83;;;8.90;99.90;;;;;;5072070;28;20270;-75
2021/03/30 02:29:34;;;;;;;41.47;18.73;;;8.90;99.90;;;;;;5079050;28;20202;-75
2021/03/30 02:32:04;;;;;;;35.00;18.73;;;8.80;99.90;;;;;;5070428;28;20230;-75
2021/03/30 02:34:32;;;;;;;39.80;19.67;;;8.60;99.90;;;;;;5071994;28;20210;-75
2021/03/30 02:36:58;;;;;;;35.07;18.63;;;8.50;99.90;;;;;;5070773;28;20187;-75
2021/03/30 02:39:26;;;;;;;34.87;19.00;;;8.50;99.90;;;;;;5074185;28;20182;-75
2021/03/30 02:41:53;;;;;;;41.97;19.67;;;8.40;99.90;;;;;;5072304;28;20192;-75
2021/03/30 02:44:21;;;;;;;37.30;19.90;;;8.40;99.90;;;;;;5068904;28;20210;-75
2021/03/30 02:46:48;;;;;;;38.10;20.27;;;8.30;99.90;;;;;;5073627;28;20231;-75
2021/03/30 02:49:16;;;;;;;41.07;19.73;;;8.30;99.90;;;;;;5070805;28;20177;-76
2021/03/30 02:51:44;;;;;;;42.40;20.10;;;8.30;99.90;;;;;;5071954;28;20235;-75
2021/03/30 02:54:11;;;;;;;43.30;20.63;;;8.20;99.90;;;;;;5069338;28;20208;-75
2021/03/30 02:56:37;;;;;;;43.20;20.60;;;8.20;99.90;;;;;;5072622;28;20225;-75
2021/03/30 02:59:04;;;;;;;38.70;20.10;;;8.30;99.90;;;;;;5073778;28;20226;-75
2021/03/30 03:01:31;;;;;;;43.83;20.90;;;8.30;99.90;;;;;;5070566;28;20188;-75
2021/03/30 03:04:00;;;;;;;42.33;20.70;;;8.40;99.90;;;;;;5073397;28;20204;-75
2021/03/30 03:06:26;;;;;;;39.33;20.30;;;8.40;99.90;;;;;;5067060;28;20197;-75
2021/03/30 03:08:53;;;;;;;43.23;20.47;;;8.30;99.90;;;;;;5071910;28;20185;-75
2021/03/30 03:11:19;;;;;;;41.33;19.97;;;8.40;99.90;;;;;;5065871;28;20194;-75
2021/03/30 03:13:47;;;;;;;41.70;19.77;;;8.30;99.90;;;;;;5072752;28;20243;-75
2021/03/30 03:16:13;;;;;;;36.03;19.17;;;8.30;99.90;;;;;;5073041;28;20174;-75
2021/03/30 03:18:41;;;;;;;37.90;19.10;;;8.30;99.90;;;;;;5070316;28;20207;-76
2021/03/30 03:21:08;;;;;;;38.20;18.90;;;8.20;99.90;;;;;;5071417;28;20569;-75
2021/03/30 03:23:37;;;;;;;40.63;19.80;;;8.10;99.90;;;;;;5074172;28;20217;-75
2021/03/30 03:26:05;;;;;;;43.03;20.97;;;8.10;99.90;;;;;;5073176;28;20203;-75
2021/03/30 03:28:31;;;;;;;45.60;21.17;;;8.10;99.90;;;;;;5069450;28;20182;-75
2021/03/30 03:30:57;;;;;;;43.67;20.67;;;8.30;99.90;;;;;;5068248;28;20211;-76
2021/03/30 03:33:23;;;;;;;43.20;20.27;;;8.30;99.90;;;;;;5078864;28;20201;-76
2021/03/30 03:36:10;;;;;;;41.33;19.77;;;8.20;99.90;;;;;;5067327;28;20177;-75
2021/03/30 03:38:41;;;;;;;43.27;20.40;;;8.10;99.90;;;;;;5070413;28;20294;-76
2021/03/30 03:41:11;;;;;;;46.63;20.17;;;8.00;99.90;;;;;;5066728;28;20194;-75
2021/03/30 03:43:37;;;;;;;46.47;20.80;;;8.00;99.90;;;;;;5072288;28;20193;-74
2021/03/30 03:46:02;;;;;;;44.07;20.30;;;8.10;99.90;;;;;;5073801;28;20188;-75
2021/03/30 03:48:28;;;;;;;43.63;20.30;;;8.10;99.90;;;;;;5068468;28;20684;-74
2021/03/30 03:50:58;;;;;;;41.53;20.17;;;8.20;99.90;;;;;;5076014;28;20699;-74
2021/03/30 03:53:25;;;;;;;47.07;20.57;;;8.20;99.90;;;;;;5071113;28;20213;-75
2021/03/30 03:55:54;;;;;;;42.80;19.37;;;8.20;99.90;;;;;;5075484;28;20659;-74
2021/03/30 03:58:30;;;;;;;45.77;20.83;;;8.20;99.90;;;;;;5074445;28;20181;-74
2021/03/30 04:00:56;;;;;;;45.40;20.13;;;8.20;99.90;;;;;;5070916;28;20181;-74
2021/03/30 04:03:27;;;;;;;40.70;19.90;;;8.10;99.90;;;;;;5072118;28;20189;-74
2021/03/30 04:06:14;;;;;;;42.43;19.47;;;8.10;99.90;;;;;;5064104;28;20193;-74
2021/03/30 04:08:49;;;;;;;38.70;18.47;;;8.10;99.90;;;;;;5067976;28;20190;-74
2021/03/30 04:11:16;;;;;;;43.33;20.23;;;8.10;99.90;;;;;;5067813;28;20213;-74
2021/03/30 04:13:44;;;;;;;43.73;20.13;;;8.10;99.90;;;;;;5069891;28;20205;-74
2021/03/30 04:16:10;;;;;;;43.07;20.23;;;8.10;99.90;;;;;;5070761;28;20770;-74
2021/03/30 04:18:39;;;;;;;46.80;20.37;;;8.20;99.90;;;;;;5068578;28;20194;-74
2021/03/30 04:21:10;;;;;;;44.83;20.10;;;8.10;99.90;;;;;;5068026;28;20184;-76
2021/03/30 04:23:42;;;;;;;45.07;20.70;;;8.20;99.90;;;;;;5069228;28;20221;-74
2021/03/30 04:26:08;;;;;;;45.90;20.97;;;8.10;99.90;;;;;;5071573;28;20191;-74
2021/03/30 04:28:33;;;;;;;43.20;20.07;;;8.10;99.90;;;;;;5068116;28;20193;-74
2021/03/30 04:30:59;;;;;;;46.47;20.23;;;8.00;99.90;;;;;;5071317;28;20664;-74
2021/03/30 04:33:24;;;;;;;42.77;19.60;;;7.90;99.90;;;;;;5068081;28;20679;-74
2021/03/30 04:35:50;;;;;;;43.70;19.43;;;7.80;99.90;;;;;;5069296;28;20659;-74
2021/03/30 04:38:16;;;;;;;45.37;20.63;;;7.70;99.90;;;;;;5070964;28;20256;-74
2021/03/30 04:40:49;;;;;;;43.90;19.40;;;7.60;99.90;;;;;;5065582;28;20188;-74
2021/03/30 04:43:14;;;;;;;42.40;19.37;;;7.60;99.90;;;;;;5069881;28;20180;-74
2021/03/30 04:45:40;;;;;;;46.73;20.47;;;7.70;99.90;;;;;;5066412;28;20745;-74
2021/03/30 04:48:06;;;;;;;43.47;19.70;;;7.70;99.90;;;;;;5069307;28;20222;-74
2021/03/30 04:50:32;;;;;;;45.23;19.60;;;7.60;99.90;;;;;;5073174;28;20186;-74
2021/03/30 04:52:58;;;;;;;46.40;19.57;;;7.60;99.90;;;;;;5069120;28;20213;-74
2021/03/30 04:55:23;;;;;;;40.80;19.03;;;7.70;99.90;;;;;;5069334;28;20291;-74
2021/03/30 04:57:49;;;;;;;42.20;19.43;;;7.80;99.90;;;;;;5066734;28;20197;-73
2021/03/30 05:00:17;;;;;;;47.23;21.00;;;7.80;99.90;;;;;;5066712;28;20570;-74
2021/03/30 05:02:43;;;;;;;42.87;18.70;;;7.80;99.90;;;;;;5069268;28;20191;-76
2021/03/30 05:05:10;;;;;;;43.73;19.63;;;7.80;99.90;;;;;;5067144;28;20268;-75
2021/03/30 05:07:35;;;;;;;47.10;19.70;;;7.80;99.90;;;;;;5071599;28;20700;-75
2021/03/30 05:10:01;;;;;;;42.97;19.67;;;7.80;99.90;;;;;;5067019;28;20286;-75
2021/03/30 05:12:27;;;;;;;42.23;19.03;;;7.80;99.90;;;;;;5068971;28;20281;-75
2021/03/30 05:14:52;;;;;;;39.33;18.73;;;7.80;99.90;;;;;;5067237;28;20575;-74
2021/03/30 05:17:18;;;;;;;40.57;18.73;;;7.90;99.90;;;;;;5067339;28;20212;-75
2021/03/30 05:19:44;;;;;;;39.77;19.33;;;7.80;99.90;;;;;;5059949;28;20194;-75
2021/03/30 05:22:09;;;;;;;42.33;18.90;;;7.70;99.90;;;;;;5064074;28;20212;-74
2021/03/30 05:24:35;;;;;;;43.47;20.37;;;7.80;99.90;;;;;;5066485;28;20189;-75
2021/03/30 05:27:01;;;;;;;46.20;20.37;;;7.90;99.90;;;;;;5068025;28;20196;-75
2021/03/30 05:29:27;;;;;;;42.53;19.90;;;7.90;99.90;;;;;;5065892;28;20191;-75
2021/03/30 05:31:53;;;;;;;46.87;20.03;;;7.90;99.90;;;;;;5069721;28;20210;-75
2021/03/30 05:34:18;;;;;;;44.93;20.53;;;7.90;99.90;;;;;;5062571;28;20216;-76
2021/03/30 05:36:44;;;;;;;43.17;19.70;;;7.90;99.90;;;;;;5069585;28;20188;-77
2021/03/30 05:39:09;;;;;;;43.23;19.07;;;8.00;99.90;;;;;;5066384;28;20337;-76
2021/03/30 05:41:39;;;;;;;49.90;19.93;;;8.00;99.90;;;;;;5068377;28;20204;-76
2021/03/30 05:44:05;;;;;;;40.47;19.77;;;7.90;99.90;;;;;;5071654;28;20252;-76
2021/03/30 05:46:32;;;;;;;39.97;18.57;;;7.90;99.90;;;;;;5066987;28;20639;-76
2021/03/30 05:48:57;;;;;;;44.37;19.97;;;7.90;99.90;;;;;;5068084;28;20196;-76
2021/03/30 05:51:24;;;;;;;42.90;19.77;;;8.00;99.90;;;;;;5071620;28;20208;-76
2021/03/30 05:53:56;;;;;;;41.83;18.70;;;8.30;99.90;;;;;;5069911;28;20209;-76
2021/03/30 05:56:23;;;;;;;44.13;18.70;;;8.90;99.90;;;;;;5070463;28;20640;-76
2021/03/30 05:58:50;;;;;;;39.47;18.63;;;9.20;99.90;;;;;;5067080;28;20614;-75
2021/03/30 06:01:17;;;;;;;39.00;18.10;;;9.40;99.90;;;;;;5082377;28;20188;-76
2021/03/30 06:03:45;;;;;;;41.43;18.93;;;9.40;99.90;;;;;;5061340;28;20188;-76
2021/03/30 06:06:11;;;;;;;36.53;18.10;;;9.70;99.90;;;;;;5069420;28;20283;-76
2021/03/30 06:08:37;;;;;;;42.90;17.73;;;10.10;99.90;;;;;;5071620;28;20839;-76
2021/03/30 06:11:07;;;;;;;39.33;18.00;;;10.60;99.90;;;;;;5066672;28;20196;-75
2021/03/30 06:13:53;;;;;;;39.10;17.83;;;10.70;99.90;;;;;;5069642;28;20224;-75
2021/03/30 06:16:20;;;;;;;40.67;18.10;;;10.40;99.90;;;;;;5065552;28;21061;-75
2021/03/30 06:18:46;;;;;;;39.03;18.63;;;9.90;99.90;;;;;;5072465;28;20281;-76
2021/03/30 06:21:15;;;;;;;49.63;19.27;;;9.50;99.90;;;;;;5068503;28;20221;-76
2021/03/30 06:23:41;;;;;;;41.37;19.87;;;9.20;99.90;;;;;;5069753;28;20232;-76
2021/03/30 06:26:16;;;;;;;43.87;18.87;;;9.10;99.90;;;;;;5068820;28;20186;-77
2021/03/30 06:28:42;;;;;;;44.00;18.20;;;9.00;99.90;;;;;;5066424;28;20200;-76
2021/03/30 06:31:11;;;;;;;38.27;17.70;;;9.00;99.90;;;;;;5072726;28;20287;-76
2021/03/30 06:33:58;;;;;;;42.10;18.43;;;8.90;99.90;;;;;;5068486;28;20612;-76
2021/03/30 06:36:32;;;;;;;42.10;18.67;;;8.90;99.90;;;;;;5073474;28;20192;-76
2021/03/30 06:39:03;;;;;;;40.37;17.93;;;9.00;99.90;;;;;;5071115;28;20188;-76
2021/03/30 06:42:00;;;;;;;42.13;19.53;;;9.20;99.90;;;;;;5075217;28;20179;-77
2021/03/30 06:44:33;;;;;;;37.60;17.03;;;9.40;99.90;;;;;;5071121;28;20197;-76
2021/03/30 06:47:14;;;;;;;35.50;16.40;;;9.60;99.90;;;;;;5072342;28;20669;-76
2021/03/30 06:50:02;;;;;;;34.43;16.57;;;10.80;99.90;;;;;;5077217;28;20184;-76
2021/03/30 06:52:29;;;;;;;33.03;16.47;;;13.80;99.90;;;;;;5070989;28;20283;-76
2021/03/30 06:54:57;;;;;;;36.80;17.77;;;15.90;99.90;;;;;;5070578;28;20210;-75
2021/03/30 06:57:37;;;;;;;37.97;17.53;;;17.60;99.90;;;;;;5071750;28;20184;-75
2021/03/30 07:00:21;;;;;;;36.43;16.53;;;19.00;99.90;;;;;;5072495;28;20588;-74
2021/03/30 07:02:56;;;;;;;33.40;18.37;;;20.30;99.90;;;;;;5071341;28;20193;-74
2021/03/30 07:05:41;;;;;;;31.90;17.20;;;22.10;95.50;;;;;;5069444;28;20566;-75
2021/03/30 07:08:08;;;;;;;29.93;16.73;;;23.30;90.10;;;;;;5065805;28;20190;-76
2021/03/30 07:10:39;;;;;;;36.87;17.60;;;24.10;82.30;;;;;;5072663;28;20189;-77
2021/03/30 07:13:06;;;;;;;33.87;18.60;;;24.60;76.00;;;;;;5064538;28;20218;-76
2021/03/30 07:15:32;;;;;;;30.93;17.27;;;25.20;72.90;;;;;;5073211;28;20184;-76
2021/03/30 07:18:36;;;;;;;30.27;17.20;;;26.40;68.40;;;;;;5073870;28;20183;-75
2021/03/30 07:21:05;;;;;;;30.50;17.30;;;27.40;62.90;;;;;;5067064;28;20649;-75
2021/03/30 07:23:35;;;;;;;28.88;17.27;;;28.20;60.00;;;;;;5075027;28;20224;-75
2021/03/30 07:26:10;;;;;;;28.55;17.80;;;28.70;57.90;;;;;;5064435;28;20191;-76
2021/03/30 07:28:49;;;;;;;29.63;17.38;;;29.50;55.50;;;;;;5069606;28;20188;-75
2021/03/30 07:31:48;;;;;;;31.08;17.88;;;30.20;54.30;;;;;;5067479;28;20192;-76
2021/03/30 07:34:25;;;;;;;27.48;17.20;;;30.50;53.40;;;;;;5038737;28;20218;-76
2021/03/30 07:37:11;;;;;;;29.02;17.17;;;31.20;51.50;;;;;;5070788;28;20191;-76
2021/03/30 07:39:48;;;;;;;32.42;16.83;;;31.80;49.50;;;;;;5071551;28;20184;-77
2021/03/30 07:42:15;;;;;;;33.00;17.45;;;31.90;47.80;;;;;;5069529;28;20223;-76
2021/03/30 07:44:42;;;;;;;28.20;17.77;;;31.90;48.30;;;;;;5070556;28;20231;-77
2021/03/30 07:47:08;;;;;;;32.92;17.55;;;32.00;48.80;;;;;;5073240;28;20228;-77
2021/03/30 07:49:40;;;;;;;29.50;17.00;;;32.30;48.60;;;;;;5071576;28;20194;-77
2021/03/30 07:52:53;;;;;;;28.98;16.00;;;33.00;47.10;;;;;;5072236;28;20626;-77
2021/03/30 07:55:27;;;;;;;26.00;15.95;;;33.80;44.70;;;;;;5042691;28;20214;-77
2021/03/30 07:58:11;;;;;;;27.15;16.08;;;34.30;44.10;;;;;;5069775;28;20258;-77
2021/03/30 08:00:39;;;;;;;25.42;16.45;;;34.50;43.00;;;;;;5067365;28;20278;-77
2021/03/30 08:03:08;;;;;;;28.08;15.95;;;34.80;43.80;;;;;;5072472;28;20235;-77
2021/03/30 08:05:34;;;;;;;23.08;15.02;;;35.20;43.50;;;;;;5069037;28;20676;-77
2021/03/30 08:08:00;;;;;;;26.60;15.90;;;35.20;44.00;;;;;;5070728;28;20592;-77
2021/03/30 08:10:34;;;;;;;22.90;15.25;;;35.30;42.60;;;;;;5069237;28;20199;-76
2021/03/30 08:13:25;;;;;;;25.70;13.10;;;35.70;41.20;;;;;;5071502;28;20338;-76
2021/03/30 08:15:56;;;;;;;21.92;12.20;;;36.00;39.80;;;;;;5072619;28;20252;-77
2021/03/30 08:18:26;;;;;;;22.42;12.55;;;35.40;38.90;;;;;;5069820;28;20262;-76
2021/03/30 08:20:58;;;;;;;21.70;13.00;;;34.20;38.40;;;;;;5070606;28;20274;-77
2021/03/30 08:23:24;;;;;;;20.20;12.02;;;32.80;39.70;;;;;;5066596;28;20265;-76
2021/03/30 08:25:53;;;;;;;19.98;12.05;;;31.40;40.60;;;;;;5073100;28;20179;-76
2021/03/30 08:28:47;;;;;;;19.90;11.52;;;29.20;42.80;;;;;;5068273;28;20641;-76
2021/03/30 08:31:35;;;;;;;21.52;11.40;;;27.30;45.00;;;;;;5065336;28;20202;-76
2021/03/30 08:34:22;;;;;;;21.95;11.32;;;26.30;46.50;;;;;;5067159;28;20693;-76
2021/03/30 08:36:56;;;;;;;22.98;11.02;;;25.60;48.30;;;;;;5071034;28;20187;-77
2021/03/30 08:39:21;;;;;;;20.58;10.25;;;26.90;47.70;;;;;;5069169;28;20217;-76
2021/03/30 08:41:47;;;;;;;17.13;10.07;;;27.30;47.00;;;;;;5070016;28;20261;-77
2021/03/30 08:44:28;;;;;;;20.35;10.20;;;28.70;45.10;;;;;;5070452;28;20179;-77
2021/03/30 08:46:56;;;;;;;17.98;9.75;;;30.10;44.80;;;;;;5069385;28;20199;-77
2021/03/30 08:49:33;;;;;;;17.83;9.50;;;32.10;42.70;;;;;;5072591;28;20654;-77
2021/03/30 08:52:05;;;;;;;18.05;9.75;;;33.20;41.20;;;;;;5066864;28;20191;-77
2021/03/30 08:54:37;;;;;;;17.08;9.27;;;33.60;40.40;;;;;;5070541;28;20212;-77
2021/03/30 08:57:11;;;;;;;16.38;9.00;;;33.60;39.80;;;;;;5071157;28;20273;-77
2021/03/30 08:59:38;;;;;;;20.45;9.50;;;34.50;39.40;;;;;;5071911;28;20182;-77
2021/03/30 09:02:05;;;;;;;17.85;9.82;;;34.40;38.00;;;;;;5068659;28;20191;-78
2021/03/30 09:04:44;;;;;;;19.60;8.82;;;34.80;38.70;;;;;;5065715;28;20245;-77
2021/03/30 09:07:10;;;;;;;18.15;9.48;;;35.40;37.80;;;;;;5070374;28;20175;-77
2021/03/30 09:09:37;;;;;;;16.63;8.63;;;35.70;37.20;;;;;;5066241;28;20191;-75
2021/03/30 09:12:24;;;;;;;15.90;8.52;;;35.30;37.40;;;;;;5071215;28;20231;-77
2021/03/30 09:15:01;;;;;;;17.55;8.10;;;34.70;37.30;;;;;;5067014;28;20280;-77
2021/03/30 09:17:28;;;;;;;15.20;8.65;;;35.10;38.00;;;;;;5069053;28;20175;-77
2021/03/30 09:19:55;;;;;;;18.55;8.38;;;34.40;36.90;;;;;;5071094;28;20187;-77
2021/03/30 09:22:26;;;;;;;16.60;7.80;;;34.20;37.40;;;;;;5067918;28;20594;-76
2021/03/30 09:25:23;;;;;;;14.35;7.90;;;34.10;37.00;;;;;;5071845;28;20184;-77
2021/03/30 09:27:49;;;;;;;18.08;7.40;;;32.50;38.00;;;;;;5068435;28;20718;-76
2021/03/30 09:30:20;;;;;;;16.23;7.15;;;30.50;39.30;;;;;;5072609;28;20211;-76
2021/03/30 09:32:47;;;;;;;13.23;6.70;;;29.30;40.00;;;;;;5065109;28;20259;-78
2021/03/30 09:35:18;;;;;;;15.80;7.25;;;28.00;41.30;;;;;;5072001;28;20186;-77
2021/03/30 09:38:03;;;;;;;17.02;7.47;;;27.10;42.40;;;;;;5069046;28;20180;-77
2021/03/30 09:40:35;;;;;;;16.38;6.80;;;26.10;46.30;;;;;;5070429;28;20318;-77
2021/03/30 09:43:04;;;;;;;20.35;7.88;;;25.40;47.50;;;;;;5071186;28;20187;-77
2021/03/30 09:45:32;;;;;;;14.20;7.03;;;25.10;48.10;;;;;;5066568;28;20184;-77
2021/03/30 09:47:59;;;;;;;17.70;6.73;;;24.60;49.30;;;;;;5069071;28;20274;-77
2021/03/30 09:50:27;;;;;;;15.73;6.40;;;24.50;48.50;;;;;;5066116;28;20608;-77
2021/03/30 09:52:53;;;;;;;16.00;6.47;;;24.50;51.40;;;;;;5102288;28;20182;-76
2021/03/30 09:55:39;;;;;;;15.35;6.47;;;25.00;48.00;;;;;;5070451;28;20614;-76
2021/03/30 09:58:17;;;;;;;14.50;6.28;;;27.20;45.90;;;;;;5069478;28;20313;-77
2021/03/30 10:00:48;;;;;;;15.60;5.72;;;30.00;42.50;;;;;;5064411;28;20180;-76
2021/03/30 10:03:15;;;;;;;15.77;5.88;;;31.90;39.60;;;;;;5066964;28;20191;-77
2021/03/30 10:05:42;;;;;;;16.77;6.60;;;33.80;39.00;;;;;;5068028;28;20511;-76
2021/03/30 10:08:23;;;;;;;13.88;6.25;;;35.40;37.90;;;;;;5066564;28;20229;-75
2021/03/30 10:10:52;;;;;;;15.45;6.00;;;36.40;35.90;;;;;;5072924;28;20269;-76
2021/03/30 10:13:26;;;;;;;13.05;5.82;;;35.80;36.10;;;;;;5068833;28;20226;-76
2021/03/30 10:15:53;;;;;;;17.40;6.13;;;36.50;34.80;;;;;;5071157;28;20205;-76
2021/03/30 10:18:22;;;;;;;11.23;5.80;;;36.50;34.20;;;;;;5073177;28;20168;-76
2021/03/30 10:20:50;;;;;;;12.68;5.82;;;36.40;34.50;;;;;;5052382;28;20215;-76
2021/03/30 10:23:17;;;;;;;13.45;5.55;;;36.20;34.30;;;;;;5073487;28;20235;-76
2021/03/30 10:25:43;;;;;;;12.73;4.97;;;36.60;35.30;;;;;;5070473;28;20329;-76
2021/03/30 10:28:10;;;;;;;11.80;4.93;;;36.70;33.60;;;;;;5072762;28;20203;-75
2021/03/30 10:30:43;;;;;;;9.00;4.00;;;36.60;32.90;;;;;;5072024;28;20175;-76
2021/03/30 10:33:14;;;;;;;11.07;5.28;;;36.70;33.30;;;;;;5070201;28;20302;-77
2021/03/30 10:35:41;;;;;;;11.35;5.05;;;37.60;33.20;;;;;;5073066;28;20184;-77
2021/03/30 10:38:07;;;;;;;11.00;5.03;;;37.10;32.60;;;;;;5071013;28;20279;-76
2021/03/30 10:40:35;;;;;;;13.45;5.15;;;36.20;33.00;;;;;;5107045;27;21049;-76
2021/03/30 10:43:18;;;;;;;12.40;5.03;;;35.70;32.40;;;;;;5074929;28;20237;-76
2021/03/30 10:45:44;;;;;;;9.90;4.82;;;35.80;33.60;;;;;;5073606;28;20183;-76
2021/03/30 10:48:09;;;;;;;11.80;5.10;;;36.80;33.80;;;;;;5073130;28;20182;-76
2021/03/30 10:50:35;;;;;;;12.23;4.90;;;35.60;32.50;;;;;;5068354;28;20191;-76
2021/03/30 10:53:01;;;;;;;20.90;5.82;;;34.40;32.80;;;;;;5067267;28;20237;-76
2021/03/30 10:55:27;;;;;;;27.08;7.55;;;33.50;34.30;;;;;;5064160;28;20568;-76
2021/03/30 10:57:53;;;;;;;29.17;7.50;;;32.20;35.80;;;;;;5069387;28;20185;-77
2021/03/30 11:00:19;;;;;;;23.38;6.07;;;31.30;37.20;;;;;;5069829;28;20233;-76
2021/03/30 11:02:45;;;;;;;12.75;5.25;;;31.10;37.80;;;;;;5071834;28;20577;-76
2021/03/30 11:05:12;;;;;;;18.88;5.93;;;31.20;37.70;;;;;;5067701;28;20213;-76
2021/03/30 11:07:38;;;;;;;15.38;5.53;;;31.80;38.00;;;;;;5068471;28;20184;-76
2021/03/30 11:10:06;;;;;;;12.27;4.80;;;32.20;36.60;;;;;;5067155;28;20191;-76
2021/03/30 11:12:34;;;;;;;11.15;4.72;;;32.30;36.80;;;;;;5066697;28;20187;-75
2021/03/30 11:15:00;;;;;;;11.48;4.97;;;32.30;37.20;;;;;;5068048;28;20200;-76
2021/03/30 11:17:26;;;;;;;11.82;4.90;;;32.50;36.80;;;;;;5067548;28;20268;-76
2021/03/30 11:19:54;;;;;;;10.90;4.03;;;32.90;35.60;;;;;;5072937;28;20664;-77
2021/03/30 11:22:20;;;;;;;9.25;3.35;;;32.90;35.80;;;;;;5069102;28;20645;-76
2021/03/30 11:24:46;;;;;;;8.90;3.92;;;32.80;35.60;;;;;;5052836;28;20214;-77
2021/03/30 11:27:11;;;;;;;12.50;3.92;;;32.10;35.70;;;;;;5066226;28;20321;-77
2021/03/30 11:29:44;;;;;;;7.07;2.60;;;31.40;34.10;;;;;;5067875;28;20226;-76
2021/03/30 11:34:58;;;;;;;8.80;2.70;;;30.00;34.20;;;;;;5070121;28;20788;-76
2021/03/30 11:39:53;;;;;;;7.30;2.70;;;30.50;35.90;;;;;;5068879;28;20271;-76
2021/03/30 11:42:19;;;;;;;6.80;3.00;;;30.60;35.80;;;;;;5077751;28;20212;-76
2021/03/30 11:44:45;;;;;;;8.07;3.65;;;30.40;35.10;;;;;;5067976;28;20211;-76
2021/03/30 11:47:11;;;;;;;7.13;3.05;;;30.00;35.10;;;;;;5068502;28;20195;-76
2021/03/30 11:49:37;;;;;;;25.40;4.75;;;29.70;35.40;;;;;;5066810;28;20183;-76
2021/03/30 11:52:04;;;;;;;9.30;4.00;;;29.90;36.80;;;;;;5071388;28;20187;-76
2021/03/30 11:54:31;;;;;;;10.73;3.88;;;30.00;37.00;;;;;;5067802;28;20539;-76
2021/03/30 11:56:57;;;;;;;10.75;4.07;;;30.10;36.90;;;;;;5070755;28;20571;-76
2021/03/30 11:59:23;;;;;;;10.05;3.95;;;29.80;37.50;;;;;;5070156;28;20194;-76
2021/03/30 12:01:49;;;;;;;13.25;4.68;;;29.60;38.20;;;;;;5067305;28;20198;-75
2021/03/30 12:04:14;;;;;;;10.43;4.50;;;29.60;37.10;;;;;;5069991;28;20249;-76
2021/03/30 12:06:40;;;;;;;10.00;4.53;;;29.80;38.30;;;;;;5068033;28;20199;-75
2021/03/30 12:09:07;;;;;;;14.25;5.10;;;29.80;37.90;;;;;;5070043;28;20202;-75
2021/03/30 12:11:33;;;;;;;15.18;5.18;;;29.60;39.00;;;;;;5071895;28;20551;-75
2021/03/30 12:13:58;;;;;;;14.88;5.10;;;29.80;40.10;;;;;;5068413;28;20210;-76
2021/03/30 12:16:25;;;;;;;15.38;5.90;;;30.40;39.80;;;;;;5069224;28;20180;-76
2021/03/30 12:18:51;;;;;;;14.27;6.05;;;30.10;39.40;;;;;;5067871;28;20208;-75
2021/03/30 12:21:18;;;;;;;12.18;5.40;;;30.30;39.60;;;;;;5070305;28;20209;-75
2021/03/30 12:23:43;;;;;;;12.60;5.35;;;29.80;38.80;;;;;;5067311;28;20231;-75
2021/03/30 12:26:09;;;;;;;10.82;4.90;;;29.60;39.60;;;;;;5068443;28;20265;-76
2021/03/30 12:28:34;;;;;;;14.02;4.90;;;30.10;38.20;;;;;;5068003;28;20188;-76
2021/03/30 12:31:00;;;;;;;10.48;4.40;;;30.10;38.20;;;;;;5063910;28;20238;-75
2021/03/30 12:33:26;;;;;;;11.85;5.13;;;30.10;37.00;;;;;;5069888;28;20653;-75
2021/03/30 12:35:51;;;;;;;12.23;4.93;;;29.40;37.90;;;;;;5069311;28;20672;-76
2021/03/30 12:38:17;;;;;;;11.40;4.68;;;29.70;38.10;;;;;;5067940;28;20191;-75
2021/03/30 12:40:43;;;;;;;11.75;4.60;;;30.70;37.80;;;;;;5068456;28;20657;-75
2021/03/30 12:43:10;;;;;;;9.05;4.35;;;30.90;36.70;;;;;;5068031;28;20176;-76
2021/03/30 12:45:36;;;;;;;10.90;4.72;;;31.30;37.80;;;;;;5067104;28;20184;-75
2021/03/30 12:48:06;;;;;;;9.13;4.47;;;31.70;36.20;;;;;;5070300;28;20227;-75
2021/03/30 12:50:33;;;;;;;11.68;4.90;;;31.40;36.40;;;;;;5068223;28;21574;-76
2021/03/30 12:53:00;;;;;;;9.57;3.78;;;30.90;36.60;;;;;;5064950;28;20692;-76
2021/03/30 12:55:25;;;;;;;10.77;3.90;;;29.70;37.10;;;;;;5066955;28;20206;-76